createdAt,value
2018-12-26T00:03:02.029Z,21.17
2018-12-26T00:08:14.790Z,18.97
2018-12-26T00:13:23.375Z,20.97
2018-12-26T00:18:32.406Z,21.10
2018-12-26T00:23:45.877Z,23.77
2018-12-26T00:28:59.470Z,21.73
2018-12-26T00:34:07.657Z,22.33
2018-12-26T00:39:21.475Z,21.97
2018-12-26T00:44:34.086Z,21.80
2018-12-26T00:49:46.691Z,22.03
2018-12-26T00:54:59.382Z,22.17
2018-12-26T01:00:13.464Z,22.60
2018-12-26T01:05:22.391Z,22.17
2018-12-26T01:10:31.432Z,20.90
2018-12-26T01:15:39.640Z,21.47
2018-12-26T01:20:50.626Z,22.20
2018-12-26T01:26:03.463Z,22.77
2018-12-26T01:31:13.895Z,20.40
2018-12-26T01:36:26.988Z,22.30
2018-12-26T01:41:39.686Z,23.17
2018-12-26T01:46:50.465Z,21.90
2018-12-26T01:52:03.044Z,21.47
2018-12-26T01:57:15.755Z,23.37
2018-12-26T02:02:23.988Z,22.17
2018-12-26T02:07:35.045Z,23.47
2018-12-26T02:12:48.786Z,24.23
2018-12-26T02:18:01.059Z,22.97
2018-12-26T02:23:14.181Z,23.47
2018-12-26T02:28:28.103Z,21.68
2018-12-26T02:33:37.203Z,22.50
2018-12-26T02:38:51.591Z,23.37
2018-12-26T02:43:58.780Z,23.67
2018-12-26T02:49:13.425Z,23.77
2018-12-26T02:54:25.715Z,22.67
2018-12-26T02:59:38.484Z,22.40
2018-12-26T03:04:50.965Z,23.77
2018-12-26T03:10:02.671Z,24.10
2018-12-26T03:15:11.762Z,24.07
2018-12-26T03:20:26.253Z,23.50
2018-12-26T03:25:34.388Z,24.50
2018-12-26T03:30:47.406Z,22.63
2018-12-26T03:36:01.231Z,25.10
2018-12-26T03:41:31.535Z,24.00
2018-12-26T03:46:45.859Z,22.93
2018-12-26T03:51:58.649Z,23.50
2018-12-26T03:57:08.516Z,23.93
2018-12-26T04:02:19.430Z,21.17
2018-12-26T04:07:34.001Z,22.73
2018-12-26T04:12:48.226Z,23.80
2018-12-26T04:17:53.418Z,23.83
2018-12-26T04:23:04.263Z,24.70
2018-12-26T04:28:18.518Z,22.63
2018-12-26T04:33:26.347Z,23.87
2018-12-26T04:38:33.808Z,25.10
2018-12-26T04:43:47.595Z,22.57
2018-12-26T04:48:59.917Z,23.10
2018-12-26T04:54:10.209Z,24.47
2018-12-26T04:59:17.951Z,24.33
2018-12-26T05:04:27.878Z,22.00
2018-12-26T05:09:36.920Z,23.37
2018-12-26T05:14:47.883Z,23.05
2018-12-26T05:19:54.709Z,22.93
2018-12-26T05:25:01.701Z,22.77
2018-12-26T05:31:09.975Z,24.17
2018-12-26T05:36:18.223Z,23.10
2018-12-26T05:41:29.935Z,21.10
2018-12-26T05:46:41.659Z,24.30
2018-12-26T05:51:52.748Z,22.83
2018-12-26T05:57:00.404Z,21.50
2018-12-26T06:02:11.100Z,21.20
2018-12-26T06:07:20.086Z,20.95
2018-12-26T06:12:33.007Z,20.90
2018-12-26T06:17:41.198Z,21.60
2018-12-26T06:22:50.084Z,20.23
2018-12-26T06:28:03.796Z,21.17
2018-12-26T06:33:10.721Z,19.77
2018-12-26T06:38:19.279Z,19.57
2018-12-26T06:43:32.040Z,20.97
2018-12-26T06:48:41.913Z,20.90
2018-12-26T06:53:51.159Z,19.67
2018-12-26T06:59:03.247Z,18.57
2018-12-26T07:04:17.659Z,19.90
2018-12-26T07:09:33.007Z,19.20
2018-12-26T07:14:41.353Z,19.90
2018-12-26T07:19:53.743Z,19.07
2018-12-26T07:25:06.871Z,20.50
2018-12-26T07:30:17.366Z,20.10
2018-12-26T07:35:24.629Z,23.23
2018-12-26T07:40:37.373Z,21.17
2018-12-26T07:45:52.357Z,22.00
2018-12-26T07:51:04.113Z,22.53
2018-12-26T07:56:17.705Z,23.05
2018-12-26T08:01:25.444Z,23.85
2018-12-26T08:06:39.012Z,25.17
2018-12-26T08:11:47.353Z,29.30
2018-12-26T08:16:59.204Z,28.50
2018-12-26T08:22:08.358Z,32.37
2018-12-26T08:27:20.940Z,31.27
2018-12-26T08:32:32.585Z,35.43
2018-12-26T08:37:45.957Z,33.43
2018-12-26T08:42:58.722Z,36.53
2018-12-26T08:48:08.697Z,35.27
2018-12-26T08:53:21.312Z,36.13
2018-12-26T08:58:35.167Z,37.63
2018-12-26T09:03:36.930Z,36.07
2018-12-26T09:08:46.806Z,40.73
2018-12-26T09:13:55.826Z,37.30
2018-12-26T09:19:10.700Z,39.38
2018-12-26T09:24:24.105Z,39.53
2018-12-26T09:29:37.547Z,42.70
2018-12-26T09:34:46.019Z,40.63
2018-12-26T09:39:58.448Z,42.10
2018-12-26T09:45:12.487Z,44.03
2018-12-26T09:50:22.987Z,39.63
2018-12-26T09:55:30.238Z,35.50
2018-12-26T10:00:40.167Z,39.93
2018-12-26T10:05:51.143Z,38.30
2018-12-26T10:11:00.111Z,39.70
2018-12-26T10:16:12.646Z,41.25
2018-12-26T10:21:23.484Z,40.55
2018-12-26T10:26:33.411Z,42.93
2018-12-26T10:31:45.095Z,42.43
2018-12-26T10:36:57.783Z,44.40
2018-12-26T10:42:10.577Z,38.63
2018-12-26T10:47:21.934Z,42.30
2018-12-26T10:52:33.468Z,41.33
2018-12-26T10:57:45.217Z,44.23
2018-12-26T11:02:55.219Z,45.88
2018-12-26T11:08:28.996Z,41.33
2018-12-26T11:13:39.770Z,41.40
2018-12-26T11:18:52.841Z,37.87
2018-12-26T11:24:03.667Z,37.60
2018-12-26T11:29:18.486Z,37.33
2018-12-26T11:34:27.246Z,37.95
2018-12-26T11:39:40.009Z,35.87
2018-12-26T11:44:51.883Z,36.07
2018-12-26T11:50:04.872Z,35.53
2018-12-26T11:55:20.630Z,35.83
2018-12-26T12:00:33.181Z,36.17
2018-12-26T12:05:50.283Z,37.50
2018-12-26T12:10:57.890Z,35.87
2018-12-26T12:16:09.319Z,32.87
2018-12-26T12:21:17.956Z,34.43
2018-12-26T12:26:28.777Z,36.23
2018-12-26T12:31:41.193Z,32.40
2018-12-26T12:36:53.776Z,31.90
2018-12-26T12:42:07.270Z,32.40
2018-12-26T12:47:17.166Z,30.62
2018-12-26T12:52:29.767Z,28.70
2018-12-26T12:57:46.091Z,30.00
2018-12-26T13:03:00.616Z,30.20
2018-12-26T13:08:13.230Z,27.97
2018-12-26T13:13:24.294Z,26.62
2018-12-26T13:18:38.244Z,28.13
2018-12-26T13:23:45.975Z,26.27
2018-12-26T13:28:55.108Z,28.37
2018-12-26T13:34:03.682Z,27.53
2018-12-26T13:39:17.447Z,24.33
2018-12-26T13:44:29.927Z,24.87
2018-12-26T13:49:41.644Z,23.27
2018-12-26T13:54:53.416Z,24.70
2018-12-26T14:00:07.052Z,25.25
2018-12-26T14:05:15.459Z,21.77
2018-12-26T14:10:26.990Z,21.75
2018-12-26T14:15:36.882Z,23.50
2018-12-26T14:20:55.605Z,21.27
2018-12-26T14:26:08.485Z,22.13
2018-12-26T14:31:20.489Z,20.95
2018-12-26T14:36:28.878Z,19.27
2018-12-26T14:41:42.446Z,20.47
2018-12-26T14:46:50.429Z,18.93
2018-12-26T14:52:03.416Z,17.73
2018-12-26T14:57:22.153Z,18.87
2018-12-26T15:02:29.734Z,18.90
2018-12-26T15:07:44.138Z,21.33
2018-12-26T15:12:53.955Z,21.10
2018-12-26T15:18:06.280Z,21.13
2018-12-26T15:23:21.673Z,19.13
2018-12-26T15:28:34.655Z,19.60
2018-12-26T15:33:48.745Z,18.50
2018-12-26T15:38:57.823Z,17.73
2018-12-26T15:44:04.674Z,18.87
2018-12-26T15:49:13.782Z,19.23
2018-12-26T15:54:24.780Z,18.63
2018-12-26T15:59:42.599Z,19.90
2018-12-26T16:04:54.308Z,18.40
2018-12-26T16:10:05.406Z,19.57
2018-12-26T16:15:14.622Z,21.77
2018-12-26T16:20:25.872Z,22.95
2018-12-26T16:25:33.393Z,23.93
2018-12-26T16:30:46.541Z,23.50
2018-12-26T16:35:57.768Z,21.83
2018-12-26T16:41:09.549Z,22.57
2018-12-26T16:46:22.303Z,24.20
2018-12-26T16:51:31.703Z,23.47
2018-12-26T16:56:41.500Z,23.57
2018-12-26T17:01:54.789Z,22.17
2018-12-26T17:07:04.316Z,24.67
2018-12-26T17:12:15.044Z,22.97
2018-12-26T17:17:24.675Z,23.22
2018-12-26T17:22:36.550Z,21.07
2018-12-26T17:27:52.453Z,20.97
2018-12-26T17:33:06.005Z,18.83
2018-12-26T17:38:15.383Z,20.32
2018-12-26T17:43:28.883Z,20.10
2018-12-26T17:48:39.684Z,21.27
2018-12-26T17:54:28.143Z,21.07
2018-12-26T17:59:55.259Z,23.33
2018-12-26T18:05:10.435Z,22.48
2018-12-26T18:10:17.766Z,18.67
2018-12-26T18:15:28.722Z,19.23
2018-12-26T18:20:40.808Z,19.00
2018-12-26T18:25:53.363Z,22.67
2018-12-26T18:31:02.567Z,19.77
2018-12-26T18:36:19.891Z,18.97
2018-12-26T18:41:28.943Z,22.63
2018-12-26T18:46:41.798Z,20.80
2018-12-26T18:51:50.280Z,19.87
2018-12-26T18:57:02.181Z,20.93
2018-12-26T19:02:17.765Z,19.33
2018-12-26T19:07:25.169Z,21.60
2018-12-26T19:12:38.669Z,21.07
2018-12-26T19:17:54.001Z,19.90
2018-12-26T19:23:06.539Z,20.97
2018-12-26T19:28:20.578Z,20.20
2018-12-26T19:33:29.884Z,21.60
2018-12-26T19:38:41.387Z,19.83
2018-12-26T19:43:51.398Z,21.03
2018-12-26T19:49:01.470Z,20.63
2018-12-26T19:54:13.274Z,21.87
2018-12-26T19:59:22.437Z,21.70
2018-12-26T20:04:33.892Z,21.60
2018-12-26T20:09:41.920Z,22.60
2018-12-26T20:14:53.606Z,21.40
2018-12-26T20:20:01.474Z,20.23
2018-12-26T20:25:09.817Z,20.30
2018-12-26T20:30:18.956Z,21.97
2018-12-26T20:35:29.073Z,21.07
2018-12-26T20:40:38.887Z,20.77
2018-12-26T20:45:52.454Z,22.23
2018-12-26T20:50:59.807Z,23.07
2018-12-26T20:56:14.479Z,21.67
2018-12-26T21:01:25.252Z,21.02
2018-12-26T21:06:38.825Z,22.17
2018-12-26T21:11:51.817Z,21.47
2018-12-26T21:17:02.663Z,21.87
2018-12-26T21:22:14.438Z,23.90
2018-12-26T21:27:25.318Z,23.50
2018-12-26T21:32:36.968Z,23.30
2018-12-26T21:37:46.047Z,23.50
2018-12-26T21:42:56.965Z,24.77
2018-12-26T21:48:04.968Z,24.67
2018-12-26T21:53:19.318Z,22.97
2018-12-26T21:58:33.163Z,23.60
2018-12-26T22:03:42.507Z,24.27
2018-12-26T22:08:49.912Z,22.63
2018-12-26T22:13:58.075Z,22.90
2018-12-26T22:19:04.527Z,24.13
2018-12-26T22:24:14.624Z,23.97
2018-12-26T22:29:27.340Z,20.40
2018-12-26T22:34:38.093Z,23.77
2018-12-26T22:39:55.788Z,23.77
2018-12-26T22:45:06.578Z,22.23
2018-12-26T22:50:17.414Z,23.77
2018-12-26T22:55:29.957Z,22.30
2018-12-26T23:00:47.914Z,21.93
2018-12-26T23:06:03.690Z,22.30
2018-12-26T23:11:20.913Z,21.43
2018-12-26T23:16:33.928Z,21.03
2018-12-26T23:21:47.451Z,20.33
2018-12-26T23:27:00.004Z,19.53
2018-12-26T23:32:14.311Z,20.17
2018-12-26T23:37:27.962Z,20.50
2018-12-26T23:42:35.324Z,22.13
2018-12-26T23:47:45.028Z,22.73
2018-12-26T23:52:52.443Z,21.37
2018-12-26T23:58:07.199Z,22.00
